createdAt,value
2022-08-17T00:02:26.970Z,80.04
2022-08-17T00:05:32.701Z,78.37
2022-08-17T00:08:43.948Z,79.29
2022-08-17T00:12:41.532Z,81.18
2022-08-17T00:15:12.113Z,81.10
2022-08-17T00:19:01.829Z,77.83
2022-08-17T00:22:29.520Z,79.21
2022-08-17T00:25:07.175Z,77.83
2022-08-17T00:28:09.557Z,79.73
2022-08-17T00:31:12.583Z,79.19
2022-08-17T00:34:14.708Z,78.05
2022-08-17T00:37:17.133Z,78.56
2022-08-17T00:40:20.452Z,80.72
2022-08-17T00:43:27.482Z,80.13
2022-08-17T00:46:40.358Z,83.15
2022-08-17T00:49:42.826Z,83.89
2022-08-17T00:52:55.942Z,85.58
2022-08-17T00:56:01.785Z,83.67
2022-08-17T00:59:07.432Z,82.85
2022-08-17T01:02:14.088Z,82.79
2022-08-17T01:05:23.515Z,82.91
2022-08-17T01:08:30.542Z,82.22
2022-08-17T01:11:33.135Z,79.13
2022-08-17T01:14:36.197Z,80.63
2022-08-17T01:17:38.413Z,80.16
2022-08-17T01:20:48.559Z,80.38
2022-08-17T01:23:50.983Z,80.23
2022-08-17T01:26:53.496Z,82.43
2022-08-17T01:30:04.134Z,83.36
2022-08-17T01:33:26.694Z,83.17
2022-08-17T01:36:28.867Z,80.89
2022-08-17T01:39:47.522Z,80.50
2022-08-17T01:42:59.280Z,82.09
2022-08-17T01:46:03.701Z,81.24
2022-08-17T01:49:09.919Z,82.62
2022-08-17T01:52:12.829Z,82.27
2022-08-17T01:55:22.471Z,83.87
2022-08-17T01:58:28.318Z,83.93
2022-08-17T02:01:32.797Z,84.28
2022-08-17T02:04:35.308Z,85.11
2022-08-17T02:07:59.688Z,86.44
2022-08-17T02:11:00.054Z,86.77
2022-08-17T02:14:05.103Z,87.74
2022-08-17T02:17:07.500Z,87.23
2022-08-17T02:20:10.662Z,85.47
2022-08-17T02:23:14.356Z,82.86
2022-08-17T02:26:25.763Z,81.68
2022-08-17T02:29:29.379Z,82.55
2022-08-17T02:32:31.532Z,81.07
2022-08-17T02:35:34.808Z,81.31
2022-08-17T02:38:38.502Z,80.42
2022-08-17T02:41:41.029Z,81.24
2022-08-17T02:44:43.519Z,81.39
2022-08-17T02:47:47.103Z,81.93
2022-08-17T02:50:49.394Z,82.16
2022-08-17T02:53:52.273Z,82.52
2022-08-17T02:56:54.403Z,82.54
2022-08-17T02:59:56.830Z,84.35
2022-08-17T03:02:58.960Z,83.20
2022-08-17T03:06:01.909Z,83.88
2022-08-17T03:09:04.711Z,84.28
2022-08-17T03:12:11.032Z,85.79
2022-08-17T03:15:22.557Z,86.77
2022-08-17T03:18:26.390Z,86.50
2022-08-17T03:21:28.774Z,85.73
2022-08-17T03:24:31.368Z,86.64
2022-08-17T03:27:33.509Z,86.48
2022-08-17T03:30:36.429Z,86.18
2022-08-17T03:33:38.538Z,85.89
2022-08-17T03:36:41.139Z,87.67
2022-08-17T03:39:43.304Z,86.42
2022-08-17T03:42:45.878Z,87.25
2022-08-17T03:46:10.979Z,88.69
2022-08-17T03:49:47.660Z,87.06
2022-08-17T03:53:08.972Z,87.39
2022-08-17T03:56:29.718Z,86.47
2022-08-17T03:59:32.726Z,84.61
2022-08-17T04:02:36.035Z,83.22
2022-08-17T04:05:39.101Z,81.72
2022-08-17T04:08:42.095Z,84.03
2022-08-17T04:11:44.933Z,83.10
2022-08-17T04:14:53.382Z,81.06
2022-08-17T04:17:57.144Z,80.22
2022-08-17T04:20:59.472Z,79.09
2022-08-17T04:24:02.963Z,78.62
2022-08-17T04:27:05.361Z,78.10
2022-08-17T04:30:08.588Z,78.01
2022-08-17T04:33:17.350Z,78.21
2022-08-17T04:36:19.885Z,75.92
2022-08-17T04:39:24.097Z,75.23
2022-08-17T04:42:26.539Z,75.11
2022-08-17T04:45:31.255Z,76.17
2022-08-17T04:48:39.581Z,74.48
2022-08-17T04:51:45.574Z,73.70
2022-08-17T04:54:57.993Z,74.04
2022-08-17T04:58:00.173Z,73.49
2022-08-17T05:01:03.094Z,72.57
2022-08-17T05:04:32.815Z,72.09
2022-08-17T05:07:31.820Z,71.17
2022-08-17T05:10:37.760Z,71.26
2022-08-17T05:13:50.232Z,71.17
2022-08-17T05:16:52.538Z,70.02
2022-08-17T05:19:55.088Z,71.06
2022-08-17T05:23:01.260Z,69.65
2022-08-17T05:26:04.196Z,70.69
2022-08-17T05:29:09.318Z,69.46
2022-08-17T05:32:37.219Z,68.98
2022-08-17T05:35:42.572Z,65.47
2022-08-17T05:38:44.955Z,63.68
2022-08-17T05:41:48.156Z,56.42
2022-08-17T05:44:50.547Z,52.36
2022-08-17T05:47:52.654Z,48.38
2022-08-17T05:51:06.292Z,44.74
2022-08-17T05:54:14.550Z,35.81
2022-08-17T05:57:22.561Z,29.58
2022-08-17T06:00:31.296Z,25.32
2022-08-17T06:03:52.382Z,23.31
2022-08-17T06:07:10.369Z,23.29
2022-08-17T06:10:34.866Z,22.76
2022-08-17T06:14:01.644Z,22.23
2022-08-17T06:17:08.603Z,20.98
2022-08-17T06:20:16.931Z,22.59
2022-08-17T06:23:43.441Z,19.79
2022-08-17T06:26:46.463Z,19.75
2022-08-17T06:30:06.889Z,19.96
2022-08-17T06:33:19.403Z,19.33
2022-08-17T06:36:43.113Z,22.45
2022-08-17T06:39:48.864Z,20.81
2022-08-17T06:43:26.156Z,19.20
2022-08-17T06:46:34.385Z,18.49
2022-08-17T06:49:55.301Z,17.34
2022-08-17T06:53:08.455Z,18.48
2022-08-17T06:56:13.611Z,15.31
2022-08-17T06:59:19.573Z,14.62
2022-08-17T07:02:52.431Z,14.69
2022-08-17T07:06:03.760Z,16.37
2022-08-17T07:09:18.794Z,16.78
2022-08-17T07:12:26.450Z,16.73
2022-08-17T07:15:42.355Z,15.17
2022-08-17T07:18:45.392Z,15.09
2022-08-17T07:22:03.082Z,16.65
2022-08-17T07:25:08.404Z,16.34
2022-08-17T07:28:12.953Z,20.09
2022-08-17T07:31:17.388Z,23.09
2022-08-17T07:34:19.762Z,25.71
2022-08-17T07:37:21.843Z,29.06
2022-08-17T07:40:29.393Z,33.20
2022-08-17T07:43:31.510Z,34.56
2022-08-17T07:47:05.369Z,35.06
2022-08-17T07:50:28.859Z,37.56
2022-08-17T07:53:32.005Z,39.23
2022-08-17T07:56:57.523Z,39.26
2022-08-17T07:59:59.813Z,40.03
2022-08-17T08:03:24.641Z,41.33
2022-08-17T08:06:28.855Z,41.14
2022-08-17T08:09:42.050Z,40.10
2022-08-17T08:12:46.015Z,39.35
2022-08-17T08:15:54.598Z,40.95
2022-08-17T08:19:01.032Z,39.27
2022-08-17T08:22:09.550Z,40.06
2022-08-17T08:25:23.928Z,40.11
2022-08-17T08:28:35.649Z,39.68
2022-08-17T08:32:01.095Z,40.26
2022-08-17T08:35:31.517Z,41.12
2022-08-17T08:38:40.088Z,41.04
2022-08-17T08:42:00.379Z,40.31
2022-08-17T08:45:09.244Z,40.25
2022-08-17T08:48:55.717Z,40.21
2022-08-17T08:52:00.191Z,40.27
2022-08-17T08:55:27.972Z,40.32
2022-08-17T08:58:42.366Z,41.21
2022-08-17T09:01:59.782Z,39.29
2022-08-17T09:05:16.504Z,39.07
2022-08-17T09:08:37.099Z,39.07
2022-08-17T09:12:01.755Z,38.35
2022-08-17T09:15:13.326Z,38.57
2022-08-17T09:19:00.458Z,37.89
2022-08-17T09:21:54.417Z,37.80
2022-08-17T09:25:06.878Z,36.46
2022-08-17T09:28:19.274Z,36.09
2022-08-17T09:31:32.771Z,36.10
2022-08-17T09:34:43.513Z,35.98
2022-08-17T09:38:03.826Z,36.12
2022-08-17T09:41:23.089Z,35.03
2022-08-17T09:44:31.078Z,35.05
2022-08-17T09:47:53.856Z,33.55
2022-08-17T09:51:13.807Z,30.15
2022-08-17T09:54:41.500Z,27.84
2022-08-17T09:58:05.135Z,25.84
2022-08-17T10:01:36.825Z,27.25
2022-08-17T10:04:58.056Z,24.45
2022-08-17T10:08:21.906Z,24.82
2022-08-17T10:11:52.253Z,25.52
2022-08-17T10:15:22.542Z,25.77
2022-08-17T10:18:49.559Z,24.48
2022-08-17T10:22:34.494Z,22.69
2022-08-17T10:26:14.999Z,22.37
2022-08-17T10:29:32.705Z,28.11
2022-08-17T10:33:14.405Z,25.94
2022-08-17T10:36:32.927Z,23.59
2022-08-17T10:40:00.629Z,25.59
2022-08-17T10:43:20.160Z,24.12
2022-08-17T10:46:55.401Z,22.52
2022-08-17T10:50:36.953Z,21.62
2022-08-17T10:53:42.162Z,21.23
2022-08-17T10:56:50.294Z,21.77
2022-08-17T10:59:54.961Z,23.09
2022-08-17T11:02:58.509Z,25.53
2022-08-17T11:06:15.946Z,24.53
2022-08-17T11:09:43.217Z,25.57
2022-08-17T11:13:26.651Z,26.12
2022-08-17T11:17:04.861Z,24.53
2022-08-17T11:20:38.741Z,24.15
2022-08-17T11:23:57.556Z,21.68
2022-08-17T11:27:12.439Z,20.58
2022-08-17T11:30:35.942Z,18.67
2022-08-17T11:33:39.212Z,18.00
2022-08-17T11:36:49.489Z,17.76
2022-08-17T11:40:09.847Z,17.05
2022-08-17T11:43:32.344Z,17.10
2022-08-17T11:47:15.654Z,18.33
2022-08-17T11:50:43.845Z,20.50
2022-08-17T11:53:46.187Z,20.41
2022-08-17T11:56:50.632Z,18.63
2022-08-17T12:00:05.026Z,18.62
2022-08-17T12:03:32.039Z,18.48
2022-08-17T12:06:43.870Z,19.58
2022-08-17T12:09:50.421Z,19.65
2022-08-17T12:12:54.770Z,17.75
2022-08-17T12:15:58.687Z,17.48
2022-08-17T12:19:02.850Z,16.52
2022-08-17T12:22:26.486Z,17.48
2022-08-17T12:25:56.623Z,17.02
2022-08-17T12:29:02.554Z,16.87
2022-08-17T12:32:07.039Z,17.80
2022-08-17T12:35:29.733Z,17.30
2022-08-17T12:38:38.224Z,16.04
2022-08-17T12:41:44.056Z,16.88
2022-08-17T12:44:50.515Z,17.34
2022-08-17T12:48:06.503Z,19.43
2022-08-17T12:51:08.915Z,21.12
2022-08-17T12:54:27.190Z,22.26
2022-08-17T12:57:32.747Z,22.53
2022-08-17T13:00:47.260Z,24.19
2022-08-17T13:03:52.575Z,25.01
2022-08-17T13:06:59.852Z,21.89
2022-08-17T13:10:04.052Z,21.23
2022-08-17T13:13:38.159Z,19.26
2022-08-17T13:16:40.485Z,19.07
2022-08-17T13:19:49.733Z,18.79
2022-08-17T13:22:58.231Z,19.22
2022-08-17T13:26:14.835Z,20.92
2022-08-17T13:29:28.875Z,20.26
2022-08-17T13:32:31.206Z,20.12
2022-08-17T13:35:39.336Z,21.27
2022-08-17T13:38:50.894Z,21.51
2022-08-17T13:41:55.361Z,21.70
2022-08-17T13:44:58.844Z,21.78
2022-08-17T13:48:13.770Z,21.95
2022-08-17T13:51:27.218Z,22.42
2022-08-17T13:54:34.140Z,23.11
2022-08-17T13:57:36.880Z,22.25
2022-08-17T14:00:40.302Z,20.55
2022-08-17T14:03:42.740Z,21.04
2022-08-17T14:06:52.990Z,21.73
2022-08-17T14:10:13.404Z,22.31
2022-08-17T14:13:15.573Z,22.59
2022-08-17T14:16:17.932Z,22.53
2022-08-17T14:19:21.872Z,23.34
2022-08-17T14:22:36.009Z,22.09
2022-08-17T14:25:38.213Z,22.17
2022-08-17T14:28:53.577Z,21.33
2022-08-17T14:32:04.259Z,21.72
2022-08-17T14:35:08.702Z,22.08
2022-08-17T14:38:10.796Z,21.60
2022-08-17T14:41:13.251Z,22.22
2022-08-17T14:44:15.655Z,22.84
2022-08-17T14:47:18.095Z,22.47
2022-08-17T14:50:21.191Z,22.75
2022-08-17T14:53:24.782Z,21.98
2022-08-17T14:56:27.226Z,21.73
2022-08-17T14:59:35.501Z,23.34
2022-08-17T15:02:53.813Z,23.09
2022-08-17T15:05:56.377Z,22.14
2022-08-17T15:08:58.500Z,22.09
2022-08-17T15:12:02.135Z,22.24
2022-08-17T15:15:05.614Z,22.65
2022-08-17T15:18:08.339Z,22.66
2022-08-17T15:21:10.835Z,22.65
2022-08-17T15:24:14.029Z,22.99
2022-08-17T15:27:16.188Z,22.90
2022-08-17T15:30:34.068Z,22.24
2022-08-17T15:33:36.272Z,23.26
2022-08-17T15:36:49.134Z,23.42
2022-08-17T15:39:52.191Z,23.59
2022-08-17T15:42:54.771Z,24.13
2022-08-17T15:46:01.228Z,24.52
2022-08-17T15:49:03.708Z,23.82
2022-08-17T15:52:16.910Z,24.04
2022-08-17T15:55:24.013Z,23.48
2022-08-17T15:58:29.989Z,23.72
2022-08-17T16:03:01.285Z,23.32
2022-08-17T16:05:10.128Z,23.57
2022-08-17T16:08:15.893Z,24.01
2022-08-17T16:11:22.456Z,23.91
2022-08-17T16:14:33.870Z,24.99
2022-08-17T16:17:39.857Z,24.15
2022-08-17T16:20:43.005Z,23.72
2022-08-17T16:23:47.501Z,24.10
2022-08-17T16:26:49.664Z,24.20
2022-08-17T16:29:52.095Z,25.04
2022-08-17T16:32:59.837Z,24.91
2022-08-17T16:36:02.321Z,24.82
2022-08-17T16:39:04.770Z,24.34
2022-08-17T16:42:24.426Z,24.91
2022-08-17T16:45:29.267Z,25.05
2022-08-17T16:48:31.670Z,25.74
2022-08-17T16:51:34.614Z,25.67
2022-08-17T16:54:39.182Z,25.30
2022-08-17T16:57:47.500Z,26.05
2022-08-17T17:00:54.314Z,25.65
2022-08-17T17:04:02.464Z,25.74
2022-08-17T17:07:14.828Z,26.20
2022-08-17T17:10:22.236Z,26.90
2022-08-17T17:13:32.380Z,26.68
2022-08-17T17:16:40.566Z,27.11
2022-08-17T17:19:53.190Z,27.58
2022-08-17T17:23:07.112Z,27.15
2022-08-17T17:26:27.669Z,26.89
2022-08-17T17:29:55.815Z,27.01
2022-08-17T17:33:17.464Z,28.32
2022-08-17T17:36:27.749Z,28.20
2022-08-17T17:39:55.865Z,28.81
2022-08-17T17:43:09.441Z,28.98
2022-08-17T17:46:37.774Z,29.32
2022-08-17T17:49:44.244Z,29.46
2022-08-17T17:53:19.001Z,29.71
2022-08-17T17:57:11.533Z,29.75
2022-08-17T18:00:20.625Z,29.40
2022-08-17T18:03:42.702Z,30.21
2022-08-17T18:06:57.034Z,30.62
2022-08-17T18:10:29.675Z,30.96
2022-08-17T18:13:52.055Z,31.64
2022-08-17T18:16:59.569Z,32.15
2022-08-17T18:20:03.810Z,32.39
2022-08-17T18:23:06.567Z,32.10
2022-08-17T18:26:08.754Z,32.47
2022-08-17T18:29:34.224Z,33.13
2022-08-17T18:32:43.488Z,33.69
2022-08-17T18:35:58.877Z,34.34
2022-08-17T18:39:15.222Z,35.72
2022-08-17T18:42:33.799Z,35.82
2022-08-17T18:45:43.437Z,36.96
2022-08-17T18:48:54.182Z,36.98
2022-08-17T18:52:16.571Z,37.93
2022-08-17T18:55:24.719Z,38.30
2022-08-17T18:58:26.944Z,38.68
2022-08-17T19:01:59.934Z,38.36
2022-08-17T19:05:30.646Z,37.64
2022-08-17T19:08:35.942Z,37.58
2022-08-17T19:11:39.661Z,37.21
2022-08-17T19:14:43.423Z,37.77
2022-08-17T19:17:59.363Z,37.51
2022-08-17T19:21:14.859Z,37.36
2022-08-17T19:24:22.955Z,37.66
2022-08-17T19:27:41.961Z,37.99
2022-08-17T19:30:50.347Z,38.45
2022-08-17T19:33:54.737Z,39.99
2022-08-17T19:37:02.020Z,39.86
2022-08-17T19:40:41.779Z,41.02
2022-08-17T19:43:54.450Z,40.87
2022-08-17T19:47:08.221Z,41.45
2022-08-17T19:50:16.576Z,40.45
2022-08-17T19:53:47.381Z,39.76
2022-08-17T19:57:18.251Z,40.36
2022-08-17T20:00:20.867Z,41.15
2022-08-17T20:03:26.302Z,41.40
2022-08-17T20:06:32.914Z,43.22
2022-08-17T20:09:43.091Z,43.93
2022-08-17T20:12:48.778Z,44.27
2022-08-17T20:15:51.291Z,44.37
2022-08-17T20:19:04.678Z,45.27
2022-08-17T20:22:17.152Z,44.42
2022-08-17T20:25:35.453Z,44.52
2022-08-17T20:28:41.301Z,45.16
2022-08-17T20:31:55.611Z,44.61
2022-08-17T20:35:08.403Z,45.20
2022-08-17T20:38:30.943Z,46.35
2022-08-17T20:42:04.495Z,46.13
2022-08-17T20:45:21.546Z,45.91
2022-08-17T20:48:38.110Z,46.84
2022-08-17T20:52:01.176Z,45.92
2022-08-17T20:55:04.862Z,46.13
2022-08-17T20:58:15.976Z,46.54
2022-08-17T21:01:34.594Z,47.73
2022-08-17T21:05:00.745Z,48.38
2022-08-17T21:08:16.110Z,47.45
2022-08-17T21:11:58.247Z,47.81
2022-08-17T21:15:16.369Z,49.53
2022-08-17T21:18:25.883Z,49.85
2022-08-17T21:21:57.872Z,51.04
2022-08-17T21:25:12.229Z,49.83
2022-08-17T21:28:34.164Z,50.30
2022-08-17T21:31:41.262Z,51.34
2022-08-17T21:35:11.107Z,50.96
2022-08-17T21:38:15.483Z,50.54
2022-08-17T21:41:33.678Z,51.35
2022-08-17T21:44:46.361Z,52.60
2022-08-17T21:48:09.258Z,52.98
2022-08-17T21:51:21.079Z,53.76
2022-08-17T21:54:47.747Z,53.91
2022-08-17T21:57:53.066Z,54.72
2022-08-17T22:01:20.910Z,53.85
2022-08-17T22:04:31.099Z,53.70
2022-08-17T22:07:36.721Z,53.43
2022-08-17T22:10:42.159Z,53.64
2022-08-17T22:13:46.353Z,52.98
2022-08-17T22:17:05.361Z,53.57
2022-08-17T22:20:15.811Z,54.04
2022-08-17T22:23:59.883Z,55.41
2022-08-17T22:27:11.854Z,54.73
2022-08-17T22:30:47.117Z,55.42
2022-08-17T22:33:52.339Z,55.31
2022-08-17T22:37:20.920Z,55.00
2022-08-17T22:40:34.438Z,54.80
2022-08-17T22:43:38.427Z,54.70
2022-08-17T22:47:24.158Z,55.42
2022-08-17T22:50:29.587Z,54.94
2022-08-17T22:53:50.429Z,55.25
2022-08-17T22:57:21.632Z,56.39
2022-08-17T23:00:29.463Z,55.99
2022-08-17T23:03:31.866Z,55.90
2022-08-17T23:06:37.327Z,56.15
2022-08-17T23:09:39.748Z,56.29
2022-08-17T23:12:42.050Z,55.55
2022-08-17T23:15:45.846Z,55.36
2022-08-17T23:18:50.660Z,55.33
2022-08-17T23:21:55.507Z,56.23
2022-08-17T23:24:58.522Z,54.79
2022-08-17T23:28:01.819Z,55.26
2022-08-17T23:31:07.798Z,54.58
2022-08-17T23:34:13.594Z,54.50
2022-08-17T23:37:17.920Z,54.56
2022-08-17T23:40:20.347Z,54.88
2022-08-17T23:43:24.393Z,55.43
2022-08-17T23:46:28.198Z,55.08
2022-08-17T23:49:31.711Z,55.10
2022-08-17T23:52:36.884Z,55.33
2022-08-17T23:55:39.000Z,55.12
2022-08-17T23:58:43.138Z,55.27
